sensor_id;sensor_type;location;lat;lon;timestamp;pressure;altitude;pressure_sealevel;temperature;humidity
43621;BME280;29213;50.770;7.298;2023-05-07T00:00:16;100747.50;;;11.71;64.48
43621;BME280;29213;50.770;7.298;2023-05-07T00:02:44;100871.41;;;12.43;64.39
43621;BME280;29213;50.770;7.298;2023-05-07T00:05:10;100896.63;;;12.57;64.63
43621;BME280;29213;50.770;7.298;2023-05-07T00:07:36;100757.53;;;11.69;64.40
43621;BME280;29213;50.770;7.298;2023-05-07T00:10:02;100832.59;;;12.15;64.45
43621;BME280;29213;50.770;7.298;2023-05-07T00:12:28;100830.75;;;12.16;64.35
43621;BME280;29213;50.770;7.298;2023-05-07T00:14:56;100885.78;;;12.50;64.40
43621;BME280;29213;50.770;7.298;2023-05-07T00:17:22;100867.44;;;12.39;64.65
43621;BME280;29213;50.770;7.298;2023-05-07T00:19:48;100853.09;;;12.23;64.41
43621;BME280;29213;50.770;7.298;2023-05-07T00:22:13;100812.75;;;11.93;64.42
43621;BME280;29213;50.770;7.298;2023-05-07T00:24:39;100867.31;;;12.24;64.18
43621;BME280;29213;50.770;7.298;2023-05-07T00:27:04;100817.22;;;12.01;64.32
43621;BME280;29213;50.770;7.298;2023-05-07T00:29:30;100831.41;;;12.01;64.57
43621;BME280;29213;50.770;7.298;2023-05-07T00:31:55;100902.97;;;12.39;64.63
43621;BME280;29213;50.770;7.298;2023-05-07T00:34:21;100859.78;;;12.19;64.44
43621;BME280;29213;50.770;7.298;2023-05-07T00:36:46;100900.50;;;12.38;64.87
43621;BME280;29213;50.770;7.298;2023-05-07T00:39:11;100851.44;;;12.06;64.68
43621;BME280;29213;50.770;7.298;2023-05-07T00:41:37;100832.94;;;11.96;64.64
43621;BME280;29213;50.770;7.298;2023-05-07T00:44:02;100824.56;;;11.90;64.74
43621;BME280;29213;50.770;7.298;2023-05-07T00:46:28;100867.47;;;12.22;64.77
43621;BME280;29213;50.770;7.298;2023-05-07T00:48:55;100848.63;;;12.07;64.91
43621;BME280;29213;50.770;7.298;2023-05-07T00:51:22;100819.53;;;11.87;65.20
43621;BME280;29213;50.770;7.298;2023-05-07T00:53:48;100864.63;;;12.15;65.03
43621;BME280;29213;50.770;7.298;2023-05-07T00:56:14;100863.47;;;12.10;64.90
43621;BME280;29213;50.770;7.298;2023-05-07T00:58:40;100883.13;;;12.25;64.90
43621;BME280;29213;50.770;7.298;2023-05-07T01:01:06;100802.72;;;11.79;65.16
43621;BME280;29213;50.770;7.298;2023-05-07T01:03:31;100848.44;;;12.00;65.17
43621;BME280;29213;50.770;7.298;2023-05-07T01:05:58;100835.78;;;11.94;65.18
43621;BME280;29213;50.770;7.298;2023-05-07T01:08:25;100865.94;;;12.11;65.25
43621;BME280;29213;50.770;7.298;2023-05-07T01:10:54;100842.94;;;12.02;65.15
43621;BME280;29213;50.770;7.298;2023-05-07T01:13:20;100844.59;;;11.95;65.35
43621;BME280;29213;50.770;7.298;2023-05-07T01:15:46;100756.19;;;11.48;65.31
43621;BME280;29213;50.770;7.298;2023-05-07T01:18:13;100801.53;;;11.81;65.39
43621;BME280;29213;50.770;7.298;2023-05-07T01:20:39;100809.03;;;11.86;65.37
43621;BME280;29213;50.770;7.298;2023-05-07T01:23:06;100797.22;;;11.80;65.19
43621;BME280;29213;50.770;7.298;2023-05-07T01:25:32;100841.25;;;12.01;65.53
43621;BME280;29213;50.770;7.298;2023-05-07T01:27:58;100864.09;;;12.20;65.35
43621;BME280;29213;50.770;7.298;2023-05-07T01:30:26;100708.19;;;11.23;65.21
43621;BME280;29213;50.770;7.298;2023-05-07T01:33:01;100802.34;;;11.82;65.27
43621;BME280;29213;50.770;7.298;2023-05-07T01:35:34;100863.78;;;12.23;65.29
43621;BME280;29213;50.770;7.298;2023-05-07T01:38:01;100865.59;;;12.23;65.33
43621;BME280;29213;50.770;7.298;2023-05-07T01:40:29;100826.25;;;12.00;65.40
43621;BME280;29213;50.770;7.298;2023-05-07T01:42:55;100752.34;;;11.50;65.32
43621;BME280;29213;50.770;7.298;2023-05-07T01:45:21;100826.25;;;12.00;65.68
43621;BME280;29213;50.770;7.298;2023-05-07T01:47:46;100757.66;;;11.59;65.68
43621;BME280;29213;50.770;7.298;2023-05-07T01:50:14;100804.06;;;11.83;65.42
43621;BME280;29213;50.770;7.298;2023-05-07T01:52:42;100820.56;;;11.95;65.58
43621;BME280;29213;50.770;7.298;2023-05-07T01:55:07;100831.09;;;12.05;65.56
43621;BME280;29213;50.770;7.298;2023-05-07T01:57:33;100815.56;;;11.92;65.46
43621;BME280;29213;50.770;7.298;2023-05-07T01:59:58;100722.84;;;11.35;65.45
43621;BME280;29213;50.770;7.298;2023-05-07T02:02:23;100875.63;;;12.21;65.69
43621;BME280;29213;50.770;7.298;2023-05-07T02:04:49;100835.41;;;11.97;65.72
43621;BME280;29213;50.770;7.298;2023-05-07T02:07:14;100844.28;;;11.98;65.78
43621;BME280;29213;50.770;7.298;2023-05-07T02:09:39;100638.78;;;10.73;65.34
43621;BME280;29213;50.770;7.298;2023-05-07T02:12:05;100831.94;;;11.97;65.67
43621;BME280;29213;50.770;7.298;2023-05-07T02:14:30;100787.53;;;11.71;65.87
43621;BME280;29213;50.770;7.298;2023-05-07T02:16:56;100845.41;;;12.03;65.90
43621;BME280;29213;50.770;7.298;2023-05-07T02:19:21;100760.84;;;11.46;65.89
43621;BME280;29213;50.770;7.298;2023-05-07T02:21:47;100802.53;;;11.72;66.09
43621;BME280;29213;50.770;7.298;2023-05-07T02:24:13;100867.59;;;12.12;65.94
43621;BME280;29213;50.770;7.298;2023-05-07T02:26:40;100728.16;;;11.27;66.09
43621;BME280;29213;50.770;7.298;2023-05-07T02:29:06;100845.94;;;11.99;65.99
43621;BME280;29213;50.770;7.298;2023-05-07T02:31:31;100805.34;;;11.70;66.27
43621;BME280;29213;50.770;7.298;2023-05-07T02:33:59;100807.38;;;11.68;66.08
43621;BME280;29213;50.770;7.298;2023-05-07T02:36:24;100813.19;;;11.72;66.38
43621;BME280;29213;50.770;7.298;2023-05-07T02:38:50;100807.53;;;11.67;66.13
43621;BME280;29213;50.770;7.298;2023-05-07T02:41:16;100757.16;;;11.39;66.41
43621;BME280;29213;50.770;7.298;2023-05-07T02:43:41;100787.19;;;11.57;66.50
43621;BME280;29213;50.770;7.298;2023-05-07T02:46:08;100824.56;;;11.82;66.36
43621;BME280;29213;50.770;7.298;2023-05-07T02:48:34;100769.00;;;11.44;66.50
43621;BME280;29213;50.770;7.298;2023-05-07T02:50:59;100837.91;;;11.90;66.40
43621;BME280;29213;50.770;7.298;2023-05-07T02:53:25;100836.78;;;11.93;66.38
43621;BME280;29213;50.770;7.298;2023-05-07T02:55:55;100840.38;;;11.92;66.40
43621;BME280;29213;50.770;7.298;2023-05-07T02:58:21;100853.44;;;12.03;66.39
43621;BME280;29213;50.770;7.298;2023-05-07T03:00:47;100854.28;;;12.04;66.46
43621;BME280;29213;50.770;7.298;2023-05-07T03:03:13;100855.13;;;12.05;66.54
43621;BME280;29213;50.770;7.298;2023-05-07T03:05:38;100813.03;;;11.82;66.47
43621;BME280;29213;50.770;7.298;2023-05-07T03:08:04;100731.00;;;11.34;66.38
43621;BME280;29213;50.770;7.298;2023-05-07T03:10:30;100748.50;;;11.45;66.36
43621;BME280;29213;50.770;7.298;2023-05-07T03:12:55;100809.19;;;11.84;66.35
43621;BME280;29213;50.770;7.298;2023-05-07T03:15:21;100673.31;;;11.00;66.15
43621;BME280;29213;50.770;7.298;2023-05-07T03:17:47;100802.22;;;11.75;66.00
43621;BME280;29213;50.770;7.298;2023-05-07T03:20:13;100729.81;;;11.28;66.29
43621;BME280;29213;50.770;7.298;2023-05-07T03:22:38;100773.00;;;11.57;65.88
43621;BME280;29213;50.770;7.298;2023-05-07T03:25:04;100831.72;;;11.90;66.13
43621;BME280;29213;50.770;7.298;2023-05-07T03:27:30;100733.81;;;11.32;66.16
43621;BME280;29213;50.770;7.298;2023-05-07T03:29:55;100781.34;;;11.62;65.98
43621;BME280;29213;50.770;7.298;2023-05-07T03:32:21;100676.50;;;10.95;66.21
43621;BME280;29213;50.770;7.298;2023-05-07T03:34:46;100740.81;;;11.33;66.18
43621;BME280;29213;50.770;7.298;2023-05-07T03:37:12;100770.00;;;11.52;66.20
43621;BME280;29213;50.770;7.298;2023-05-07T03:39:37;100753.16;;;11.43;66.01
43621;BME280;29213;50.770;7.298;2023-05-07T03:42:03;100816.03;;;11.79;65.97
43621;BME280;29213;50.770;7.298;2023-05-07T03:44:28;100765.66;;;11.42;65.81
43621;BME280;29213;50.770;7.298;2023-05-07T03:46:54;100718.50;;;11.18;66.07
43621;BME280;29213;50.770;7.298;2023-05-07T03:49:20;100803.19;;;11.66;66.20
43621;BME280;29213;50.770;7.298;2023-05-07T03:51:46;100786.19;;;11.58;65.86
43621;BME280;29213;50.770;7.298;2023-05-07T03:54:11;100669.78;;;10.82;66.12
43621;BME280;29213;50.770;7.298;2023-05-07T03:56:37;100788.84;;;11.50;66.15
43621;BME280;29213;50.770;7.298;2023-05-07T03:59:02;100833.19;;;11.68;66.10
43621;BME280;29213;50.770;7.298;2023-05-07T04:01:28;100671.13;;;10.78;65.90
43621;BME280;29213;50.770;7.298;2023-05-07T04:03:53;100758.47;;;11.26;65.99
43621;BME280;29213;50.770;7.298;2023-05-07T04:06:19;100819.56;;;11.62;66.12
43621;BME280;29213;50.770;7.298;2023-05-07T04:08:44;100810.84;;;11.60;66.32
43621;BME280;29213;50.770;7.298;2023-05-07T04:11:09;100826.88;;;11.69;66.21
43621;BME280;29213;50.770;7.298;2023-05-07T04:13:35;100812.03;;;11.58;65.98
43621;BME280;29213;50.770;7.298;2023-05-07T04:16:06;100863.09;;;11.88;66.23
43621;BME280;29213;50.770;7.298;2023-05-07T04:18:31;100837.56;;;11.69;66.18
43621;BME280;29213;50.770;7.298;2023-05-07T04:20:56;100499.34;;;9.55;65.89
43621;BME280;29213;50.770;7.298;2023-05-07T04:23:22;100686.13;;;10.79;66.28
43621;BME280;29213;50.770;7.298;2023-05-07T04:25:47;100788.00;;;11.33;66.33
43621;BME280;29213;50.770;7.298;2023-05-07T04:28:13;100774.13;;;11.21;66.21
43621;BME280;29213;50.770;7.298;2023-05-07T04:30:39;100872.75;;;11.89;66.32
43621;BME280;29213;50.770;7.298;2023-05-07T04:33:04;100858.91;;;11.77;66.18
43621;BME280;29213;50.770;7.298;2023-05-07T04:35:32;100874.44;;;11.90;66.52
43621;BME280;29213;50.770;7.298;2023-05-07T04:37:57;100816.34;;;11.59;66.31
43621;BME280;29213;50.770;7.298;2023-05-07T04:40:23;100742.13;;;11.13;66.50
43621;BME280;29213;50.770;7.298;2023-05-07T04:42:48;100787.00;;;11.42;66.51
43621;BME280;29213;50.770;7.298;2023-05-07T04:45:14;100856.56;;;11.82;66.51
43621;BME280;29213;50.770;7.298;2023-05-07T04:47:40;100742.81;;;11.15;66.35
43621;BME280;29213;50.770;7.298;2023-05-07T04:50:06;100849.88;;;11.78;66.46
43621;BME280;29213;50.770;7.298;2023-05-07T04:52:33;100884.16;;;11.99;66.46
43621;BME280;29213;50.770;7.298;2023-05-07T04:54:59;100875.47;;;11.97;66.47
43621;BME280;29213;50.770;7.298;2023-05-07T04:57:26;100815.84;;;11.55;66.39
43621;BME280;29213;50.770;7.298;2023-05-07T04:59:52;100876.78;;;12.01;66.38
43621;BME280;29213;50.770;7.298;2023-05-07T05:02:17;100791.16;;;11.45;66.67
43621;BME280;29213;50.770;7.298;2023-05-07T05:04:42;100641.06;;;10.60;66.29
43621;BME280;29213;50.770;7.298;2023-05-07T05:07:08;100757.81;;;11.32;66.70
43621;BME280;29213;50.770;7.298;2023-05-07T05:09:33;100795.03;;;11.50;66.69
43621;BME280;29213;50.770;7.298;2023-05-07T05:11:59;100595.06;;;10.33;66.56
43621;BME280;29213;50.770;7.298;2023-05-07T05:14:25;100848.91;;;11.87;67.05
43621;BME280;29213;50.770;7.298;2023-05-07T05:16:50;100855.91;;;11.88;67.40
43621;BME280;29213;50.770;7.298;2023-05-07T05:19:15;100788.84;;;11.58;67.10
43621;BME280;29213;50.770;7.298;2023-05-07T05:21:41;100782.03;;;11.56;67.21
43621;BME280;29213;50.770;7.298;2023-05-07T05:24:07;100707.78;;;10.93;67.38
43621;BME280;29213;50.770;7.298;2023-05-07T05:26:32;100775.84;;;11.55;67.40
43621;BME280;29213;50.770;7.298;2023-05-07T05:28:57;100861.28;;;12.13;67.57
43621;BME280;29213;50.770;7.298;2023-05-07T05:31:23;100856.78;;;12.06;67.48
43621;BME280;29213;50.770;7.298;2023-05-07T05:33:48;100781.34;;;11.62;67.49
43621;BME280;29213;50.770;7.298;2023-05-07T05:36:14;100810.69;;;11.87;67.61
43621;BME280;29213;50.770;7.298;2023-05-07T05:38:39;100866.09;;;12.26;67.95
43621;BME280;29213;50.770;7.298;2023-05-07T05:41:05;100878.94;;;12.39;67.53
43621;BME280;29213;50.770;7.298;2023-05-07T05:43:31;100741.50;;;11.52;67.62
43621;BME280;29213;50.770;7.298;2023-05-07T05:45:57;100880.78;;;12.39;67.76
43621;BME280;29213;50.770;7.298;2023-05-07T05:48:22;100827.75;;;12.11;67.95
43621;BME280;29213;50.770;7.298;2023-05-07T05:50:48;100870.97;;;12.31;68.17
43621;BME280;29213;50.770;7.298;2023-05-07T05:53:13;100844.72;;;12.26;68.25
43621;BME280;29213;50.770;7.298;2023-05-07T05:55:39;100827.72;;;12.19;68.29
43621;BME280;29213;50.770;7.298;2023-05-07T05:58:04;100822.25;;;12.04;67.88
43621;BME280;29213;50.770;7.298;2023-05-07T06:00:30;100584.97;;;10.53;68.08
43621;BME280;29213;50.770;7.298;2023-05-07T06:02:55;100825.91;;;12.03;67.89
43621;BME280;29213;50.770;7.298;2023-05-07T06:05:21;100778.06;;;11.93;67.60
43621;BME280;29213;50.770;7.298;2023-05-07T06:07:46;100873.44;;;12.49;67.06
43621;BME280;29213;50.770;7.298;2023-05-07T06:10:12;100827.75;;;12.27;66.87
43621;BME280;29213;50.770;7.298;2023-05-07T06:12:37;100818.38;;;12.23;66.66
43621;BME280;29213;50.770;7.298;2023-05-07T06:15:03;100879.56;;;12.66;66.75
43621;BME280;29213;50.770;7.298;2023-05-07T06:17:29;100835.88;;;12.42;66.50
43621;BME280;29213;50.770;7.298;2023-05-07T06:19:54;100835.19;;;12.49;66.39
43621;BME280;29213;50.770;7.298;2023-05-07T06:22:20;100783.16;;;12.28;66.31
43621;BME280;29213;50.770;7.298;2023-05-07T06:24:45;100784.00;;;12.28;66.00
43621;BME280;29213;50.770;7.298;2023-05-07T06:27:11;100869.84;;;12.74;65.88
43621;BME280;29213;50.770;7.298;2023-05-07T06:29:36;100788.81;;;12.33;65.74
43621;BME280;29213;50.770;7.298;2023-05-07T06:32:09;100803.84;;;12.42;66.04
43621;BME280;29213;50.770;7.298;2023-05-07T06:34:36;100843.28;;;12.80;65.89
43621;BME280;29213;50.770;7.298;2023-05-07T06:37:02;100846.94;;;12.88;65.70
43621;BME280;29213;50.770;7.298;2023-05-07T06:39:30;100523.28;;;10.91;65.05
43621;BME280;29213;50.770;7.298;2023-05-07T06:41:59;100713.78;;;12.20;65.02
43621;BME280;29213;50.770;7.298;2023-05-07T06:44:24;100860.56;;;13.09;64.88
43621;BME280;29213;50.770;7.298;2023-05-07T06:46:50;100636.13;;;11.56;64.50
43621;BME280;29213;50.770;7.298;2023-05-07T06:49:15;100869.97;;;13.05;63.96
43621;BME280;29213;50.770;7.298;2023-05-07T06:51:41;100858.63;;;12.95;63.67
43621;BME280;29213;50.770;7.298;2023-05-07T06:54:06;100701.31;;;11.79;63.50
43621;BME280;29213;50.770;7.298;2023-05-07T06:56:32;100604.84;;;11.33;63.46
43621;BME280;29213;50.770;7.298;2023-05-07T06:59:00;100908.31;;;13.29;63.59
43621;BME280;29213;50.770;7.298;2023-05-07T07:01:26;100759.59;;;12.40;63.45
43621;BME280;29213;50.770;7.298;2023-05-07T07:03:52;100846.53;;;12.99;63.47
43621;BME280;29213;50.770;7.298;2023-05-07T07:06:17;100908.69;;;13.49;63.22
43621;BME280;29213;50.770;7.298;2023-05-07T07:08:43;100913.34;;;13.56;62.90
43621;BME280;29213;50.770;7.298;2023-05-07T07:11:09;100829.25;;;13.27;63.09
43621;BME280;29213;50.770;7.298;2023-05-07T07:13:35;100695.28;;;12.50;62.86
43621;BME280;29213;50.770;7.298;2023-05-07T07:16:01;100713.03;;;12.74;62.12
43621;BME280;29213;50.770;7.298;2023-05-07T07:18:26;100718.22;;;12.76;62.36
43621;BME280;29213;50.770;7.298;2023-05-07T07:20:52;100901.16;;;14.08;62.24
43621;BME280;29213;50.770;7.298;2023-05-07T07:23:17;100844.13;;;13.99;62.17
43621;BME280;29213;50.770;7.298;2023-05-07T07:25:42;100849.47;;;13.99;61.56
43621;BME280;29213;50.770;7.298;2023-05-07T07:28:08;100884.41;;;14.29;61.84
43621;BME280;29213;50.770;7.298;2023-05-07T07:30:33;100908.88;;;14.65;61.76
43621;BME280;29213;50.770;7.298;2023-05-07T07:32:59;100810.50;;;13.97;60.98
43621;BME280;29213;50.770;7.298;2023-05-07T07:35:29;100880.19;;;14.65;61.11
43621;BME280;29213;50.770;7.298;2023-05-07T07:37:54;100855.34;;;14.56;60.56
43621;BME280;29213;50.770;7.298;2023-05-07T07:40:20;100494.47;;;12.23;59.51
43621;BME280;29213;50.770;7.298;2023-05-07T07:42:45;100865.88;;;14.58;59.98
43621;BME280;29213;50.770;7.298;2023-05-07T07:45:11;100879.19;;;14.66;60.44
43621;BME280;29213;50.770;7.298;2023-05-07T07:47:37;100893.06;;;14.85;60.58
43621;BME280;29213;50.770;7.298;2023-05-07T07:50:02;100838.50;;;14.48;59.56
43621;BME280;29213;50.770;7.298;2023-05-07T07:52:28;100864.56;;;14.69;59.57
43621;BME280;29213;50.770;7.298;2023-05-07T07:54:53;100889.25;;;14.79;59.32
43621;BME280;29213;50.770;7.298;2023-05-07T07:57:18;100763.94;;;14.06;59.74
43621;BME280;29213;50.770;7.298;2023-05-07T07:59:44;100672.03;;;13.37;59.47
43621;BME280;29213;50.770;7.298;2023-05-07T08:02:09;100871.63;;;14.85;59.47
43621;BME280;29213;50.770;7.298;2023-05-07T08:04:35;100700.97;;;13.72;58.54
43621;BME280;29213;50.770;7.298;2023-05-07T08:07:02;100837.88;;;14.76;59.34
43621;BME280;29213;50.770;7.298;2023-05-07T08:09:27;100554.91;;;12.94;58.07
43621;BME280;29213;50.770;7.298;2023-05-07T08:11:53;100876.97;;;15.00;58.68
43621;BME280;29213;50.770;7.298;2023-05-07T08:14:18;100775.41;;;14.45;58.13
43621;BME280;29213;50.770;7.298;2023-05-07T08:16:43;100916.16;;;15.31;57.88
43621;BME280;29213;50.770;7.298;2023-05-07T08:19:09;100926.91;;;15.46;57.55
43621;BME280;29213;50.770;7.298;2023-05-07T08:21:38;100935.47;;;15.57;58.09
43621;BME280;29213;50.770;7.298;2023-05-07T08:24:04;100762.75;;;14.54;57.17
43621;BME280;29213;50.770;7.298;2023-05-07T08:26:30;100824.25;;;14.92;57.07
43621;BME280;29213;50.770;7.298;2023-05-07T08:28:55;100896.81;;;15.51;57.45
43621;BME280;29213;50.770;7.298;2023-05-07T08:31:20;100861.88;;;15.29;57.20
43621;BME280;29213;50.770;7.298;2023-05-07T08:33:46;100914.97;;;15.71;55.92
43621;BME280;29213;50.770;7.298;2023-05-07T08:36:11;100750.59;;;14.73;55.92
43621;BME280;29213;50.770;7.298;2023-05-07T08:38:36;100917.81;;;15.84;55.40
43621;BME280;29213;50.770;7.298;2023-05-07T08:41:02;100875.34;;;15.73;55.58
43621;BME280;29213;50.770;7.298;2023-05-07T08:43:28;100932.22;;;15.98;54.69
43621;BME280;29213;50.770;7.298;2023-05-07T08:45:55;100880.72;;;15.73;55.03
43621;BME280;29213;50.770;7.298;2023-05-07T08:48:22;100897.03;;;15.93;54.40
43621;BME280;29213;50.770;7.298;2023-05-07T08:50:50;100677.16;;;14.67;54.79
43621;BME280;29213;50.770;7.298;2023-05-07T08:53:16;100847.28;;;15.75;53.72
43621;BME280;29213;50.770;7.298;2023-05-07T08:55:42;100791.09;;;15.52;53.97
43621;BME280;29213;50.770;7.298;2023-05-07T08:58:07;100815.06;;;15.75;53.59
43621;BME280;29213;50.770;7.298;2023-05-07T09:00:33;100874.56;;;16.23;53.84
43621;BME280;29213;50.770;7.298;2023-05-07T09:03:00;100777.47;;;15.75;53.84
43621;BME280;29213;50.770;7.298;2023-05-07T09:05:25;100769.47;;;15.82;53.85
43621;BME280;29213;50.770;7.298;2023-05-07T09:07:51;100876.91;;;16.61;54.15
43621;BME280;29213;50.770;7.298;2023-05-07T09:10:16;100820.78;;;16.45;53.65
43621;BME280;29213;50.770;7.298;2023-05-07T09:12:41;100870.22;;;16.86;52.68
43621;BME280;29213;50.770;7.298;2023-05-07T09:15:07;100840.75;;;16.70;52.39
43621;BME280;29213;50.770;7.298;2023-05-07T09:17:33;100836.44;;;16.76;53.28
43621;BME280;29213;50.770;7.298;2023-05-07T09:20:03;100914.75;;;17.37;53.03
43621;BME280;29213;50.770;7.298;2023-05-07T09:22:33;100897.56;;;17.31;52.74
43621;BME280;29213;50.770;7.298;2023-05-07T09:24:59;100906.13;;;17.55;52.98
43621;BME280;29213;50.770;7.298;2023-05-07T09:27:25;100710.16;;;16.48;52.26
43621;BME280;29213;50.770;7.298;2023-05-07T09:29:51;100909.94;;;17.81;52.47
43621;BME280;29213;50.770;7.298;2023-05-07T09:32:16;100804.19;;;17.39;52.63
43621;BME280;29213;50.770;7.298;2023-05-07T09:34:42;100813.75;;;17.61;51.18
43621;BME280;29213;50.770;7.298;2023-05-07T09:37:08;100881.16;;;18.09;51.27
43621;BME280;29213;50.770;7.298;2023-05-07T09:39:46;100898.13;;;18.36;51.48
43621;BME280;29213;50.770;7.298;2023-05-07T09:42:12;100896.28;;;18.37;51.31
43621;BME280;29213;50.770;7.298;2023-05-07T09:44:40;100895.03;;;18.46;51.03
43621;BME280;29213;50.770;7.298;2023-05-07T09:47:06;100875.72;;;18.49;51.06
43621;BME280;29213;50.770;7.298;2023-05-07T09:49:35;100877.59;;;18.55;49.63
43621;BME280;29213;50.770;7.298;2023-05-07T09:52:05;100900.84;;;18.70;49.10
43621;BME280;29213;50.770;7.298;2023-05-07T09:54:32;100895.00;;;18.73;49.68
43621;BME280;29213;50.770;7.298;2023-05-07T09:56:59;100840.47;;;18.51;49.88
43621;BME280;29213;50.770;7.298;2023-05-07T09:59:25;100897.84;;;18.99;50.25
43621;BME280;29213;50.770;7.298;2023-05-07T10:01:52;100709.34;;;17.91;49.20
43621;BME280;29213;50.770;7.298;2023-05-07T10:04:19;100643.25;;;17.61;49.92
43621;BME280;29213;50.770;7.298;2023-05-07T10:06:45;100781.75;;;18.60;48.76
43621;BME280;29213;50.770;7.298;2023-05-07T10:09:11;100844.09;;;18.97;48.34
43621;BME280;29213;50.770;7.298;2023-05-07T10:11:37;100857.69;;;19.22;49.21
43621;BME280;29213;50.770;7.298;2023-05-07T10:14:04;100842.91;;;19.32;48.11
43621;BME280;29213;50.770;7.298;2023-05-07T10:16:34;100844.84;;;19.57;47.42
43621;BME280;29213;50.770;7.298;2023-05-07T10:19:05;100831.06;;;19.65;47.99
43621;BME280;29213;50.770;7.298;2023-05-07T10:21:36;100870.44;;;20.12;46.62
43621;BME280;29213;50.770;7.298;2023-05-07T10:24:09;100867.09;;;20.35;46.45
43621;BME280;29213;50.770;7.298;2023-05-07T10:26:42;100773.56;;;20.02;44.74
43621;BME280;29213;50.770;7.298;2023-05-07T10:29:21;100848.59;;;20.95;45.90
43621;BME280;29213;50.770;7.298;2023-05-07T10:31:52;100871.59;;;21.54;44.89
43621;BME280;29213;50.770;7.298;2023-05-07T10:34:24;100858.75;;;21.61;43.72
43621;BME280;29213;50.770;7.298;2023-05-07T10:36:52;100747.88;;;21.05;42.18
43621;BME280;29213;50.770;7.298;2023-05-07T10:39:19;100821.03;;;21.59;42.79
43621;BME280;29213;50.770;7.298;2023-05-07T10:41:45;100827.06;;;21.73;42.52
43621;BME280;29213;50.770;7.298;2023-05-07T10:44:10;100536.59;;;19.84;42.48
43621;BME280;29213;50.770;7.298;2023-05-07T10:46:36;100639.81;;;20.73;41.99
43621;BME280;29213;50.770;7.298;2023-05-07T10:51:34;100874.94;;;22.75;40.52
43621;BME280;29213;50.770;7.298;2023-05-07T10:56:35;100777.03;;;22.65;39.72
43621;BME280;29213;50.770;7.298;2023-05-07T11:01:59;100830.78;;;23.50;39.30
43621;BME280;29213;50.770;7.298;2023-05-07T11:04:25;100850.41;;;23.69;38.28
43621;BME280;29213;50.770;7.298;2023-05-07T11:15:07;100835.59;;;24.51;34.48
43621;BME280;29213;50.770;7.298;2023-05-07T11:17:34;100742.50;;;24.09;34.39
43621;BME280;29213;50.770;7.298;2023-05-07T11:20:01;100835.94;;;24.82;35.55
43621;BME280;29213;50.770;7.298;2023-05-07T11:24:55;100729.09;;;24.03;34.78
43621;BME280;29213;50.770;7.298;2023-05-07T11:27:24;100688.38;;;23.51;32.17
43621;BME280;29213;50.770;7.298;2023-05-07T11:29:50;100834.56;;;24.18;34.25
43621;BME280;29213;50.770;7.298;2023-05-07T11:32:26;100783.91;;;23.77;34.75
43621;BME280;29213;50.770;7.298;2023-05-07T11:34:52;100831.19;;;24.10;36.03
43621;BME280;29213;50.770;7.298;2023-05-07T11:37:19;100753.69;;;23.56;36.06
43621;BME280;29213;50.770;7.298;2023-05-07T11:39:45;100805.97;;;23.98;35.38
43621;BME280;29213;50.770;7.298;2023-05-07T11:42:32;100833.34;;;24.08;34.80
43621;BME280;29213;50.770;7.298;2023-05-07T11:44:58;100817.94;;;23.97;35.48
43621;BME280;29213;50.770;7.298;2023-05-07T11:47:24;100817.69;;;23.81;34.80
43621;BME280;29213;50.770;7.298;2023-05-07T11:49:51;100831.81;;;23.78;34.87
43621;BME280;29213;50.770;7.298;2023-05-07T11:52:18;100827.19;;;23.61;33.08
43621;BME280;29213;50.770;7.298;2023-05-07T11:54:54;100807.25;;;23.27;35.52
43621;BME280;29213;50.770;7.298;2023-05-07T11:57:24;100835.19;;;23.39;36.43
43621;BME280;29213;50.770;7.298;2023-05-07T11:59:56;100825.34;;;23.21;37.04
43621;BME280;29213;50.770;7.298;2023-05-07T12:02:22;100816.59;;;23.02;35.67
43621;BME280;29213;50.770;7.298;2023-05-07T12:04:47;100818.72;;;23.00;36.02
43621;BME280;29213;50.770;7.298;2023-05-07T12:07:14;100786.00;;;22.65;35.33
43621;BME280;29213;50.770;7.298;2023-05-07T12:09:40;100810.09;;;22.62;34.91
43621;BME280;29213;50.770;7.298;2023-05-07T12:12:06;100733.59;;;22.12;35.64
43621;BME280;29213;50.770;7.298;2023-05-07T12:14:32;100756.81;;;22.20;36.94
43621;BME280;29213;50.770;7.298;2023-05-07T12:17:00;100843.69;;;22.73;37.49
43621;BME280;29213;50.770;7.298;2023-05-07T12:19:29;100639.81;;;21.27;39.04
43621;BME280;29213;50.770;7.298;2023-05-07T12:21:56;100836.44;;;22.49;39.29
43621;BME280;29213;50.770;7.298;2023-05-07T12:24:21;100749.66;;;21.78;39.31
43621;BME280;29213;50.770;7.298;2023-05-07T12:26:48;100799.28;;;21.90;38.19
43621;BME280;29213;50.770;7.298;2023-05-07T12:29:13;100831.34;;;21.93;39.73
43621;BME280;29213;50.770;7.298;2023-05-07T12:31:42;100807.72;;;21.58;40.03
43621;BME280;29213;50.770;7.298;2023-05-07T12:34:11;100869.72;;;21.78;40.53
43621;BME280;29213;50.770;7.298;2023-05-07T12:36:40;100881.50;;;21.60;42.76
43621;BME280;29213;50.770;7.298;2023-05-07T12:39:07;100818.75;;;20.83;46.15
43621;BME280;29213;50.770;7.298;2023-05-07T12:41:56;100888.66;;;21.05;48.20
43621;BME280;29213;50.770;7.298;2023-05-07T12:44:24;100873.94;;;20.82;49.25
43621;BME280;29213;50.770;7.298;2023-05-07T12:46:51;100867.13;;;20.54;49.74
43621;BME280;29213;50.770;7.298;2023-05-07T12:49:17;100848.97;;;20.17;50.80
43621;BME280;29213;50.770;7.298;2023-05-07T12:51:47;100859.84;;;20.10;51.12
43621;BME280;29213;50.770;7.298;2023-05-07T12:54:13;100868.19;;;20.02;51.96
43621;BME280;29213;50.770;7.298;2023-05-07T12:56:39;100626.31;;;18.26;52.01
43621;BME280;29213;50.770;7.298;2023-05-07T12:59:05;100811.47;;;19.44;52.75
43621;BME280;29213;50.770;7.298;2023-05-07T13:01:31;100864.31;;;19.66;53.82
43621;BME280;29213;50.770;7.298;2023-05-07T13:04:05;100852.00;;;19.38;54.71